Time;durP1;ratioP1;P1;durP2;ratioP2;P2;SDS_P1;SDS_P2;PMS_P1;PMS_P2;Temp;Humidity;BMP_temperature;BMP_pressure;BME280_temperature;BME280_humidity;BME280_pressure;Samples;Min_cycle;Max_cycle;Signal;HPM_P1;HPM_P2
2021/07/18 00:01:42;;;;;;;10.77;4.22;;;16.50;99.90;;;15.51;100.00;102182.03;5040648;28;20112;-75
2021/07/18 00:04:08;;;;;;;13.93;4.25;;;16.60;99.90;;;15.53;100.00;102227.09;5040322;28;20129;-74
2021/07/18 00:06:35;;;;;;;10.48;3.83;;;16.60;99.90;;;15.44;100.00;102301.78;5040704;28;20446;-74
2021/07/18 00:09:02;;;;;;;9.68;3.38;;;16.50;99.90;;;15.37;100.00;102295.88;5038550;28;20161;-75
2021/07/18 00:11:28;;;;;;;11.57;3.83;;;16.50;99.90;;;15.33;100.00;102273.94;5040823;28;20030;-74
2021/07/18 00:13:54;;;;;;;10.23;3.83;;;16.40;99.90;;;15.30;100.00;102284.66;5022075;28;20041;-74
2021/07/18 00:16:20;;;;;;;6.80;3.40;;;16.40;99.90;;;15.25;100.00;102245.97;5033911;28;20027;-74
2021/07/18 00:18:46;;;;;;;10.45;4.07;;;16.30;99.90;;;15.19;100.00;102252.41;5020891;28;20071;-75
2021/07/18 00:21:12;;;;;;;13.15;4.80;;;16.30;99.90;;;15.27;100.00;102250.31;5024439;28;20404;-75
2021/07/18 00:23:38;;;;;;;5.20;3.22;;;16.40;99.90;;;15.27;100.00;102228.19;5039789;28;20071;-75
2021/07/18 00:26:05;;;;;;;9.00;3.28;;;16.40;99.90;;;15.22;100.00;102216.91;5025396;28;20036;-74
2021/07/18 00:28:32;;;;;;;7.78;3.47;;;16.30;99.90;;;15.20;100.00;102211.66;5022424;28;20068;-75
2021/07/18 00:30:59;;;;;;;12.25;3.33;;;16.30;99.90;;;15.21;100.00;102213.41;5006202;28;20150;-75
2021/07/18 00:33:26;;;;;;;11.52;3.80;;;16.30;99.90;;;15.21;100.00;102202.78;5024001;28;20060;-74
2021/07/18 00:35:53;;;;;;;8.73;3.20;;;16.30;99.90;;;15.13;100.00;102199.59;5037798;28;20055;-74
2021/07/18 00:38:19;;;;;;;8.63;3.15;;;16.20;99.90;;;15.09;100.00;102195.34;5039558;28;20122;-73
2021/07/18 00:40:45;;;;;;;10.93;3.03;;;16.20;99.90;;;15.04;100.00;102231.81;5038023;28;20026;-74
2021/07/18 00:43:11;;;;;;;9.38;2.70;;;16.20;99.90;;;14.94;100.00;102223.38;5039433;28;20539;-74
2021/07/18 00:45:37;;;;;;;7.13;2.50;;;16.10;99.90;;;14.85;100.00;102203.41;5036626;28;20126;-75
2021/07/18 00:48:05;;;;;;;7.65;2.80;;;16.00;99.90;;;14.84;100.00;102193.72;5040145;28;20059;-75
2021/07/18 00:50:33;;;;;;;9.63;2.63;;;16.00;99.90;;;14.90;100.00;102230.59;5020438;28;20125;-75
2021/07/18 00:52:59;;;;;;;6.15;2.55;;;16.10;99.90;;;15.06;100.00;102227.31;5040025;28;20135;-74
2021/07/18 00:55:25;;;;;;;11.25;2.70;;;16.10;99.90;;;15.10;100.00;102197.94;5025324;28;20104;-75
2021/07/18 00:57:53;;;;;;;10.45;2.65;;;16.20;99.90;;;15.10;100.00;102197.94;5033148;28;20059;-74
2021/07/18 01:00:19;;;;;;;10.57;2.75;;;16.20;99.90;;;15.09;100.00;102195.34;5037556;28;20470;-74
2021/07/18 01:02:46;;;;;;;4.28;2.42;;;16.20;99.90;;;15.07;100.00;102190.09;5038682;28;20150;-74
2021/07/18 01:05:15;;;;;;;7.82;3.00;;;16.10;99.90;;;15.00;100.00;102182.47;5040963;28;20067;-74
2021/07/18 01:07:41;;;;;;;10.45;2.75;;;16.10;99.90;;;15.03;100.00;102253.94;5021278;28;20081;-74
2021/07/18 01:10:09;;;;;;;10.70;2.55;;;16.10;99.90;;;15.04;100.00;102367.09;5038839;28;20083;-74
2021/07/18 01:12:36;;;;;;;12.38;2.72;;;16.10;99.90;;;15.05;100.00;102403.31;5032552;28;20040;-75
2021/07/18 01:15:04;;;;;;;12.18;3.13;;;16.10;99.90;;;15.02;100.00;102435.28;5019957;28;20064;-74
2021/07/18 01:17:30;;;;;;;7.53;2.33;;;16.10;99.90;;;14.94;100.00;102414.31;5027872;28;20045;-74
2021/07/18 01:19:58;;;;;;;4.28;2.38;;;16.00;99.90;;;14.88;100.00;102495.00;5014297;28;20397;-74
2021/07/18 01:22:24;;;;;;;6.88;1.90;;;16.00;99.90;;;14.82;100.00;102483.75;5038695;28;20030;-75
2021/07/18 01:24:51;;;;;;;8.25;2.13;;;15.90;99.90;;;14.75;100.00;102467.19;5021574;28;20099;-75
2021/07/18 01:27:17;;;;;;;8.18;2.05;;;15.90;99.90;;;14.68;100.00;102484.25;5039812;28;21148;-75
2021/07/18 01:29:44;;;;;;;6.82;2.40;;;15.80;99.90;;;14.65;100.00;102522.34;5036962;28;20070;-75
2021/07/18 01:32:10;;;;;;;2.60;1.85;;;15.90;99.90;;;14.72;100.00;102546.84;5038743;28;20063;-75
2021/07/18 01:34:36;;;;;;;7.47;2.20;;;15.80;99.90;;;14.70;100.00;102498.31;5021799;28;20547;-75
2021/07/18 01:37:02;;;;;;;7.47;2.58;;;15.80;99.90;;;14.66;100.00;102508.16;5038893;28;20060;-74
2021/07/18 01:39:28;;;;;;;11.90;2.22;;;15.80;99.90;;;14.69;100.00;102546.97;5035887;28;20067;-75
2021/07/18 01:41:58;;;;;;;5.85;2.22;;;15.80;99.90;;;14.72;100.00;102573.38;5005771;28;20044;-74
2021/07/18 01:44:24;;;;;;;8.43;2.28;;;15.80;99.90;;;14.71;100.00;102667.97;5019718;28;20162;-75
2021/07/18 01:46:51;;;;;;;5.05;2.35;;;15.80;99.90;;;14.69;100.00;102592.03;5040514;28;20078;-74
2021/07/18 01:49:17;;;;;;;8.00;2.75;;;15.70;99.90;;;14.65;100.00;102638.13;5037152;28;20076;-75
2021/07/18 01:51:44;;;;;;;4.10;2.17;;;15.70;99.90;;;14.62;100.00;102673.59;5039855;28;20059;-75
2021/07/18 01:54:11;;;;;;;4.50;1.95;;;15.70;99.90;;;14.56;100.00;102631.34;5020524;28;20110;-75
2021/07/18 01:56:38;;;;;;;4.63;2.25;;;15.70;99.90;;;14.45;100.00;102703.25;5023484;28;20078;-74
2021/07/18 01:59:04;;;;;;;9.57;1.95;;;15.60;99.90;;;14.40;100.00;102649.50;5019990;28;20029;-74
2021/07/18 02:01:33;;;;;;;10.80;2.17;;;15.50;99.90;;;14.33;100.00;102677.13;5036041;28;20070;-74
2021/07/18 02:04:02;;;;;;;4.40;1.80;;;15.50;99.90;;;14.33;100.00;102730.13;5030799;28;20083;-75
2021/07/18 02:06:30;;;;;;;9.38;2.95;;;15.60;99.90;;;14.39;100.00;102708.72;5038064;28;20121;-75
2021/07/18 02:08:59;;;;;;;6.55;2.08;;;15.20;99.90;;;14.43;100.00;102758.06;5020284;28;20080;-75
2021/07/18 02:11:27;;;;;;;8.65;2.05;;;15.50;99.90;;;14.39;100.00;102735.22;5019977;28;20078;-75
2021/07/18 02:13:57;;;;;;;4.60;2.03;;;15.60;99.90;;;14.41;100.00;102773.16;5038268;28;20056;-75
2021/07/18 02:16:26;;;;;;;5.30;1.80;;;15.60;99.90;;;14.42;100.00;102801.38;5020624;28;20534;-75
2021/07/18 02:18:52;;;;;;;4.95;1.80;;;15.60;99.90;;;14.42;100.00;102842.94;5021162;28;20090;-74
2021/07/18 02:21:22;;;;;;;5.20;1.67;;;15.60;99.90;;;14.45;100.00;102859.63;5036578;28;20056;-75
2021/07/18 02:23:49;;;;;;;8.25;2.47;;;15.60;99.90;;;14.44;100.00;102871.13;5021343;28;20083;-75
2021/07/18 02:26:17;;;;;;;8.65;1.88;;;15.60;99.90;;;14.41;100.00;102900.38;5005513;28;20177;-74
2021/07/18 02:28:43;;;;;;;4.78;2.05;;;15.60;99.90;;;14.44;100.00;102931.22;5036481;28;20060;-74
2021/07/18 02:31:09;;;;;;;3.70;1.77;;;15.60;99.90;;;14.42;100.00;102983.41;5035551;28;20052;-75
2021/07/18 02:33:36;;;;;;;9.10;1.90;;;15.50;99.90;;;14.37;100.00;102938.47;5021651;28;20500;-74
2021/07/18 02:36:04;;;;;;;7.88;2.03;;;15.50;99.90;;;14.35;100.00;102866.94;5012160;28;20075;-75
2021/07/18 02:38:31;;;;;;;7.30;2.08;;;15.60;99.90;;;14.34;100.00;102851.09;5020642;28;20063;-74
2021/07/18 02:40:58;;;;;;;8.95;2.20;;;15.50;99.90;;;14.31;100.00;102848.53;5038442;28;20098;-75
2021/07/18 02:43:25;;;;;;;9.57;2.17;;;15.50;99.90;;;14.30;100.00;103027.00;5035169;28;20109;-75
2021/07/18 02:45:51;;;;;;;5.07;2.03;;;15.50;99.90;;;14.28;100.00;102989.94;5039980;28;20044;-74
2021/07/18 02:48:17;;;;;;;9.15;1.30;;;15.40;99.90;;;14.10;100.00;102911.81;5035683;28;20082;-75
2021/07/18 02:50:43;;;;;;;6.82;1.77;;;15.30;99.90;;;13.97;100.00;102938.66;5021000;28;20435;-74
2021/07/18 02:53:09;;;;;;;2.20;1.00;;;15.20;99.90;;;13.91;100.00;103050.94;5036007;28;20051;-74
2021/07/18 02:55:34;;;;;;;2.88;1.10;;;15.00;99.90;;;13.51;100.00;102893.03;5021060;28;20104;-75
2021/07/18 02:58:00;;;;;;;2.95;1.20;;;14.70;99.90;;;13.15;100.00;102879.72;5038274;28;24140;-74
2021/07/18 03:00:27;;;;;;;3.97;1.73;;;14.40;99.90;;;12.95;100.00;102839.66;5035924;28;20404;-75
2021/07/18 03:02:54;;;;;;;6.88;1.50;;;14.30;99.90;;;12.79;100.00;102869.06;5020886;28;20582;-75
2021/07/18 03:05:20;;;;;;;8.88;2.03;;;14.10;99.90;;;12.82;100.00;102934.22;5027237;28;20071;-75
2021/07/18 03:07:47;;;;;;;6.25;1.90;;;14.10;99.90;;;12.82;100.00;102879.56;5036240;28;20150;-75
2021/07/18 03:10:16;;;;;;;5.70;1.85;;;14.20;99.90;;;12.84;100.00;102954.44;5035833;28;20612;-75
2021/07/18 03:12:43;;;;;;;7.85;1.90;;;14.20;99.90;;;12.96;100.00;102998.28;5021104;28;20093;-75
2021/07/18 03:15:14;;;;;;;7.47;2.33;;;14.30;99.90;;;13.11;100.00;103008.53;5026943;28;20164;-74
2021/07/18 03:17:41;;;;;;;9.13;2.40;;;14.50;99.90;;;13.34;100.00;103005.41;5019742;28;20048;-75
2021/07/18 03:20:11;;;;;;;4.68;2.08;;;14.70;99.90;;;13.67;100.00;103026.75;5036557;28;20113;-75
2021/07/18 03:22:40;;;;;;;4.10;2.30;;;14.90;99.90;;;13.77;100.00;103111.28;5018653;28;20058;-75
2021/07/18 03:25:09;;;;;;;7.45;2.47;;;15.00;99.90;;;13.85;100.00;103252.34;5018981;28;20232;-75
2021/07/18 03:27:35;;;;;;;6.10;2.67;;;15.10;99.90;;;14.00;100.00;103140.75;5027451;28;20104;-74
2021/07/18 03:30:03;;;;;;;7.25;2.78;;;15.20;99.90;;;14.13;100.00;103167.84;5037220;28;20087;-75
2021/07/18 03:32:29;;;;;;;6.13;2.67;;;15.40;99.90;;;14.27;100.00;103318.56;5036599;28;20454;-74
2021/07/18 03:34:55;;;;;;;5.28;2.22;;;15.50;99.90;;;14.36;100.00;103200.00;5040585;28;20071;-74
2021/07/18 03:37:21;;;;;;;8.43;2.70;;;15.60;99.90;;;14.46;100.00;103223.63;5031273;28;20048;-75
2021/07/18 03:39:47;;;;;;;6.22;2.42;;;15.70;99.90;;;14.57;100.00;103192.47;5039740;28;20037;-74
2021/07/18 03:42:13;;;;;;;9.32;2.50;;;15.80;99.90;;;14.68;100.00;103052.53;5033955;28;20049;-75
2021/07/18 03:44:40;;;;;;;9.73;2.47;;;15.90;99.90;;;14.74;100.00;103118.66;5038627;28;20538;-75
2021/07/18 03:47:07;;;;;;;5.97;2.35;;;16.00;99.90;;;14.85;100.00;103171.44;5026784;28;20059;-75
2021/07/18 03:49:34;;;;;;;4.32;2.35;;;16.10;99.90;;;14.94;100.00;103165.00;5041339;28;20078;-74
2021/07/18 03:52:00;;;;;;;8.20;1.98;;;16.20;99.90;;;15.00;100.00;103187.88;5039032;28;20111;-75
2021/07/18 03:54:26;;;;;;;12.60;2.40;;;16.20;99.90;;;15.07;100.00;103211.53;5024074;28;20146;-75
2021/07/18 03:56:52;;;;;;;10.98;2.03;;;16.40;99.90;;;15.21;100.00;103329.75;5038900;28;20032;-75
2021/07/18 03:59:18;;;;;;;7.47;2.08;;;16.70;99.90;;;15.43;100.00;103274.31;5025071;28;20090;-74
2021/07/18 04:01:44;;;;;;;6.22;2.20;;;17.00;99.90;;;15.77;100.00;103306.19;5022709;28;20053;-75
2021/07/18 04:04:10;;;;;;;6.68;1.88;;;17.40;99.90;;;16.27;100.00;103367.66;5024371;28;20033;-75
2021/07/18 04:06:36;;;;;;;3.45;1.52;;;17.90;99.90;;;16.58;100.00;103282.50;5024948;28;20025;-74
2021/07/18 04:09:02;;;;;;;3.10;1.55;;;18.20;99.90;;;16.80;100.00;103250.81;5022016;28;20079;-75
2021/07/18 04:11:29;;;;;;;6.88;1.45;;;18.60;99.90;;;17.05;100.00;103244.66;5033094;28;20105;-75
2021/07/18 04:13:55;;;;;;;3.85;1.70;;;18.80;99.90;;;17.14;100.00;103203.56;5025040;28;20076;-75
2021/07/18 04:16:21;;;;;;;4.85;2.03;;;18.80;99.90;;;17.18;100.00;103192.75;5021382;28;20036;-75
2021/07/18 04:18:47;;;;;;;3.53;1.50;;;18.90;99.90;;;17.23;100.00;103184.59;5039789;28;20431;-75
2021/07/18 04:21:19;;;;;;;3.95;1.35;;;19.00;99.90;;;17.38;100.00;103168.06;5038445;28;20168;-75
2021/07/18 04:23:46;;;;;;;2.88;1.42;;;19.20;99.90;;;17.57;100.00;103178.03;5026546;28;20049;-75
2021/07/18 04:26:12;;;;;;;3.08;1.20;;;19.30;99.90;;;17.72;100.00;103166.81;5039813;28;20037;-75
2021/07/18 04:28:38;;;;;;;6.00;1.13;;;19.60;99.90;;;18.03;98.77;103181.63;5022013;28;20025;-75
2021/07/18 04:31:04;;;;;;;3.15;1.35;;;19.90;99.90;;;18.27;97.41;103297.13;5038825;28;20052;-75
2021/07/18 04:33:30;;;;;;;3.05;1.02;;;20.20;99.90;;;18.46;96.38;103206.59;5040507;28;20025;-75
2021/07/18 04:35:56;;;;;;;4.18;1.17;;;20.20;99.90;;;18.18;96.23;103138.38;5038936;28;20032;-75
2021/07/18 04:38:22;;;;;;;2.75;1.10;;;20.00;99.90;;;18.32;96.80;103139.63;5022682;28;20044;-75
2021/07/18 04:40:48;;;;;;;3.40;1.13;;;20.00;99.90;;;18.40;96.70;103145.50;5039206;28;20037;-75
2021/07/18 04:43:14;;;;;;;1.48;0.90;;;20.10;99.90;;;18.44;95.78;103145.31;5039317;28;20107;-75
2021/07/18 04:45:40;;;;;;;2.28;1.10;;;20.30;99.90;;;18.63;94.38;103142.72;5021664;28;20119;-75
2021/07/18 04:48:07;;;;;;;3.42;1.17;;;20.50;99.90;;;18.75;93.95;103143.16;5020513;28;20452;-75
2021/07/18 04:50:33;;;;;;;3.75;0.95;;;20.70;99.90;;;19.06;92.68;103183.63;5040100;28;20026;-75
2021/07/18 04:52:59;;;;;;;5.03;1.00;;;20.80;99.90;;;18.96;92.44;103150.28;5038858;28;20028;-75
2021/07/18 04:55:25;;;;;;;5.30;1.30;;;20.70;99.90;;;19.02;91.61;103138.44;5039032;28;20136;-74
2021/07/18 04:57:51;;;;;;;2.60;1.05;;;20.70;99.90;;;18.98;91.00;103113.66;5040726;28;20086;-74
2021/07/18 05:00:21;;;;;;;4.57;1.35;;;20.70;99.90;;;19.08;92.42;103166.69;5037953;28;20381;-75
2021/07/18 05:02:49;;;;;;;2.05;0.90;;;20.90;99.90;;;19.40;91.10;103171.44;5038326;28;20043;-75
2021/07/18 05:05:18;;;;;;;3.38;1.02;;;21.30;99.90;;;19.46;89.38;103157.81;5050115;28;20041;-74
2021/07/18 05:07:56;;;;;;;1.95;0.70;;;21.20;99.90;;;19.51;90.62;103149.59;5017013;28;20094;-75
2021/07/18 05:10:28;;;;;;;3.17;1.05;;;21.30;99.90;;;19.56;89.52;103142.22;5014309;28;20047;-75
2021/07/18 05:12:56;;;;;;;1.55;0.95;;;21.20;99.90;;;19.49;88.91;103131.91;5004558;28;20025;-75
2021/07/18 05:15:26;;;;;;;2.33;1.15;;;21.20;99.90;;;19.62;89.44;103138.41;5040067;28;20065;-74
2021/07/18 05:17:54;;;;;;;1.95;0.98;;;21.30;99.90;;;19.70;88.76;103140.72;5019772;28;20374;-74
2021/07/18 05:20:21;;;;;;;2.42;1.00;;;21.40;99.90;;;19.76;88.64;103137.78;5021718;28;20091;-75
2021/07/18 05:22:50;;;;;;;3.65;1.00;;;21.60;99.90;;;19.71;86.59;103113.94;5021110;28;20028;-74
2021/07/18 05:25:16;;;;;;;1.50;0.80;;;21.50;99.90;;;19.82;86.32;103124.97;5025593;28;20057;-75
2021/07/18 05:27:42;;;;;;;3.17;1.20;;;21.70;99.90;;;20.13;86.38;103152.94;5037099;28;20025;-75
2021/07/18 05:30:12;;;;;;;1.98;1.08;;;22.20;99.90;;;20.53;85.05;103179.53;5039239;28;20485;-75
2021/07/18 05:32:39;;;;;;;4.57;0.90;;;22.50;99.90;;;20.79;83.76;103196.97;5012993;28;20037;-75
2021/07/18 05:35:07;;;;;;;4.43;0.93;;;23.00;99.90;;;21.32;80.65;103236.19;5040651;28;20035;-75
2021/07/18 05:37:33;;;;;;;3.70;0.90;;;22.70;99.90;;;20.57;83.57;103128.47;5028482;28;20029;-75
2021/07/18 05:39:59;;;;;;;2.60;1.00;;;22.00;99.90;;;19.96;85.22;103072.66;5021205;28;20041;-74
2021/07/18 05:42:25;;;;;;;2.20;0.93;;;21.10;99.90;;;19.15;90.07;103024.78;5022355;28;20497;-75
2021/07/18 05:44:51;;;;;;;4.15;1.20;;;20.40;99.90;;;18.82;93.53;103017.41;5014027;28;20037;-75
2021/07/18 05:47:17;;;;;;;8.63;2.60;;;20.00;99.90;;;18.55;94.33;102991.91;5021731;28;20043;-75
2021/07/18 05:49:43;;;;;;;9.05;1.60;;;19.80;99.90;;;18.44;95.09;102990.59;5037686;28;20050;-75
2021/07/18 05:52:09;;;;;;;3.35;1.30;;;19.70;99.90;;;18.67;95.91;103035.88;5021338;28;20087;-75
2021/07/18 05:54:35;;;;;;;3.65;1.20;;;20.00;99.90;;;18.88;94.34;103031.38;5038960;28;20108;-74
2021/07/18 05:57:01;;;;;;;2.15;1.20;;;20.20;99.90;;;19.21;92.73;103064.56;5019002;28;20033;-74
2021/07/18 05:59:28;;;;;;;3.30;1.00;;;20.40;99.90;;;19.14;92.59;103044.44;5023050;28;21278;-75
2021/07/18 06:01:54;;;;;;;4.03;1.15;;;20.10;99.90;;;18.67;93.44;102945.16;5021150;28;20030;-75
2021/07/18 06:04:20;;;;;;;5.15;1.40;;;19.80;99.90;;;18.49;95.27;102954.84;5040386;28;20446;-75
2021/07/18 06:06:46;;;;;;;4.95;1.30;;;19.70;99.90;;;18.62;95.89;102932.03;5019562;28;20041;-75
2021/07/18 06:09:12;;;;;;;4.50;1.55;;;19.70;99.90;;;18.67;95.55;103319.59;5037376;28;20029;-75
2021/07/18 06:11:38;;;;;;;3.50;1.40;;;19.90;99.90;;;18.80;95.88;103280.84;5039108;28;20088;-74
2021/07/18 06:14:04;;;;;;;2.25;1.13;;;20.00;99.90;;;18.93;94.50;103243.81;5019879;28;20117;-74
2021/07/18 06:16:30;;;;;;;8.43;1.48;;;20.20;99.90;;;19.15;93.28;103237.56;5037501;28;20079;-74
2021/07/18 06:18:56;;;;;;;6.78;1.20;;;20.40;99.90;;;19.29;91.84;103219.16;5021317;28;20029;-75
2021/07/18 06:21:22;;;;;;;6.82;1.30;;;20.40;99.90;;;19.36;92.65;103214.41;5039179;28;20104;-75
2021/07/18 06:23:49;;;;;;;4.82;1.27;;;20.50;99.90;;;19.35;89.75;103201.97;5037433;28;20033;-75
2021/07/18 06:26:15;;;;;;;2.67;1.10;;;20.50;99.90;;;19.42;90.54;103203.44;5036799;28;20029;-75
2021/07/18 06:28:42;;;;;;;1.38;0.90;;;20.40;99.90;;;19.11;90.19;103129.16;5035560;28;20028;-74
2021/07/18 06:31:08;;;;;;;4.38;1.23;;;20.10;99.90;;;18.74;91.64;103048.00;5026484;28;20025;-75
2021/07/18 06:33:34;;;;;;;3.60;1.15;;;19.90;99.90;;;18.68;93.85;103082.97;5039013;28;20106;-75
2021/07/18 06:36:00;;;;;;;7.03;1.45;;;19.60;99.90;;;18.41;93.41;103001.41;5036443;28;20086;-75
2021/07/18 06:38:26;;;;;;;4.82;1.30;;;19.50;99.90;;;18.39;94.39;102991.72;5017968;28;20028;-75
2021/07/18 06:40:52;;;;;;;4.47;1.05;;;19.50;99.90;;;18.49;92.71;102992.19;5037678;28;20021;-75
2021/07/18 06:43:18;;;;;;;7.28;1.38;;;19.50;99.90;;;18.41;93.63;102973.84;5021115;28;20025;-75
2021/07/18 06:45:45;;;;;;;4.15;1.52;;;19.60;99.90;;;18.49;92.85;102962.84;5050329;28;20133;-74
2021/07/18 06:48:11;;;;;;;2.65;1.30;;;19.60;99.90;;;18.56;93.50;102951.84;5037840;28;20033;-75
2021/07/18 06:50:37;;;;;;;5.07;1.60;;;19.70;99.90;;;18.60;92.22;102958.75;5029382;28;20083;-74
2021/07/18 06:53:03;;;;;;;4.30;1.33;;;19.60;99.90;;;18.45;91.30;102940.78;5020521;28;20073;-74
2021/07/18 06:55:29;;;;;;;8.75;1.45;;;19.50;99.90;;;18.49;90.60;102945.06;5037838;28;20124;-74
2021/07/18 06:57:55;;;;;;;3.75;1.40;;;19.80;99.90;;;18.87;89.55;102981.63;5035521;28;20051;-75
2021/07/18 07:00:23;;;;;;;6.80;1.38;;;20.00;99.90;;;19.03;87.28;102982.66;5037939;28;20017;-74
2021/07/18 07:02:49;;;;;;;5.68;1.02;;;20.10;99.90;;;19.04;87.23;102981.72;5044746;28;20074;-75
2021/07/18 07:05:18;;;;;;;9.70;1.20;;;20.00;99.90;;;18.82;86.73;102963.16;5020712;28;20050;-74
2021/07/18 07:07:47;;;;;;;4.60;1.35;;;20.00;99.90;;;19.03;88.08;103014.69;5009505;28;20503;-74
2021/07/18 07:10:19;;;;;;;4.65;1.40;;;20.10;99.90;;;19.02;86.76;102944.41;5036016;28;20032;-75
2021/07/18 07:12:47;;;;;;;2.65;1.20;;;20.20;99.90;;;19.63;86.37;103014.50;5019283;28;20098;-74
2021/07/18 07:15:13;;;;;;;4.38;1.15;;;20.70;99.90;;;19.64;84.21;102976.16;5020712;28;20033;-74
2021/07/18 07:17:39;;;;;;;2.28;1.13;;;20.50;99.90;;;19.27;84.19;102932.56;5037228;28;20037;-75
2021/07/18 07:20:11;;;;;;;2.33;1.08;;;20.30;99.90;;;19.17;85.92;102947.28;5019950;28;20516;-75
2021/07/18 07:22:40;;;;;;;4.45;1.40;;;20.50;99.90;;;19.67;84.36;102992.94;5037085;28;20485;-75
2021/07/18 07:25:16;;;;;;;4.15;1.33;;;20.60;99.90;;;19.52;85.45;102956.25;5021743;28;20114;-75
2021/07/18 07:27:44;;;;;;;3.78;1.60;;;20.60;99.90;;;19.34;86.01;102927.78;5019796;28;20034;-74
2021/07/18 07:30:13;;;;;;;5.57;1.30;;;20.30;99.90;;;19.08;86.74;102889.84;5027016;28;20032;-75
2021/07/18 07:32:39;;;;;;;11.73;1.50;;;20.20;99.90;;;19.16;86.91;102902.84;5021022;28;20040;-75
2021/07/18 07:35:08;;;;;;;2.63;1.30;;;20.20;99.90;;;19.02;85.40;102879.47;5035701;28;20102;-75
2021/07/18 07:37:35;;;;;;;3.05;0.90;;;20.10;99.90;;;19.06;84.69;102886.38;5036112;28;20107;-75
2021/07/18 07:40:04;;;;;;;4.00;1.20;;;20.10;99.90;;;19.09;84.77;102888.03;5034705;28;20100;-74
2021/07/18 07:42:30;;;;;;;2.63;1.10;;;20.10;99.90;;;19.10;84.61;102874.63;5020354;28;20449;-75
2021/07/18 07:44:56;;;;;;;8.35;1.20;;;20.30;99.90;;;19.49;85.45;102920.81;5009676;28;20053;-75
2021/07/18 07:47:23;;;;;;;4.18;1.10;;;20.30;99.90;;;19.27;83.49;102876.47;5037224;28;20026;-74
2021/07/18 07:49:49;;;;;;;2.78;0.90;;;20.30;99.90;;;19.28;84.93;102875.50;5035979;28;20045;-75
2021/07/18 07:52:15;;;;;;;7.85;1.08;;;20.40;99.90;;;19.44;84.37;102889.84;5035680;28;20327;-75
2021/07/18 07:54:42;;;;;;;3.58;1.08;;;20.40;99.90;;;19.47;84.46;102880.81;5037330;28;20577;-75
2021/07/18 07:57:08;;;;;;;6.50;1.45;;;20.60;99.90;;;19.68;85.24;102911.81;5002983;28;20036;-74
2021/07/18 07:59:34;;;;;;;5.47;1.00;;;20.80;99.90;;;19.89;82.26;102909.00;5021277;28;20025;-74
2021/07/18 08:02:01;;;;;;;4.00;1.10;;;20.90;99.90;;;19.92;82.61;102902.66;5012745;28;20455;-74
2021/07/18 08:04:29;;;;;;;5.28;1.17;;;21.10;99.90;;;19.97;80.29;102901.44;5029069;28;20446;-75
2021/07/18 08:06:56;;;;;;;4.50;1.10;;;21.00;99.90;;;19.85;81.75;102880.72;5020376;28;20508;-74
2021/07/18 08:09:22;;;;;;;5.78;1.33;;;20.90;99.90;;;19.94;82.15;102898.09;5033239;28;20072;-75
2021/07/18 08:11:48;;;;;;;3.35;1.40;;;21.10;99.90;;;20.29;79.59;102920.28;5037363;28;20473;-74
2021/07/18 08:14:15;;;;;;;8.07;1.23;;;21.90;99.90;;;21.55;74.55;103019.69;5020725;28;20025;-74
2021/07/18 08:16:41;;;;;;;3.83;1.23;;;23.00;99.90;;;22.40;70.09;103047.84;5036327;28;20036;-74
2021/07/18 08:19:07;;;;;;;3.67;0.98;;;23.30;99.90;;;22.61;69.99;103042.97;5035109;28;20030;-75
2021/07/18 08:21:33;;;;;;;4.40;1.25;;;23.80;99.90;;;22.70;68.00;103013.75;5038849;28;20028;-75
2021/07/18 08:24:00;;;;;;;2.20;1.20;;;23.90;99.90;;;22.80;68.10;103003.28;5040258;28;20092;-74
2021/07/18 08:26:26;;;;;;;2.67;1.20;;;23.90;99.90;;;22.85;68.56;102995.81;5040730;28;20072;-75
2021/07/18 08:28:51;;;;;;;3.95;1.15;;;24.40;99.90;;;23.34;65.67;103013.31;5037906;28;20485;-75
2021/07/18 08:31:17;;;;;;;3.65;1.20;;;24.60;99.90;;;23.53;64.54;110112.41;5024752;28;20029;-75
2021/07/18 08:33:44;;;;;;;5.22;1.40;;;24.80;99.90;;;23.27;64.63;104676.06;5025230;28;20177;-75
2021/07/18 08:36:12;;;;;;;3.17;1.00;;;23.90;99.90;;;22.26;67.28;104123.06;5022648;28;20025;-74
2021/07/18 08:38:37;;;;;;;4.40;1.05;;;23.50;99.90;;;22.39;68.04;103813.81;5039633;28;20117;-74
2021/07/18 08:41:04;;;;;;;5.95;1.17;;;23.70;99.90;;;22.91;68.22;103808.56;5021493;28;20038;-74
2021/07/18 08:43:32;;;;;;;3.80;1.20;;;24.50;99.90;;;23.64;64.16;103586.00;5040168;28;20392;-74
2021/07/18 08:45:58;;;;;;;2.75;1.10;;;24.80;99.90;;;23.74;63.55;103465.31;5038975;28;20048;-75
2021/07/18 08:48:24;;;;;;;4.53;1.40;;;24.80;99.90;;;23.10;63.40;103357.91;5039632;28;20437;-74
2021/07/18 08:50:51;;;;;;;3.08;1.33;;;23.20;99.90;;;21.48;68.76;103070.94;5022454;28;20444;-74
2021/07/18 08:53:18;;;;;;;5.22;1.35;;;23.00;99.90;;;21.88;66.23;103068.72;5005279;28;20048;-75
2021/07/18 08:55:45;;;;;;;3.67;1.50;;;23.10;99.90;;;22.20;65.30;103100.84;5023798;28;20108;-74
2021/07/18 08:58:11;;;;;;;3.17;1.60;;;23.70;99.90;;;22.75;63.45;103102.09;5038905;28;20292;-74
2021/07/18 09:00:43;;;;;;;3.60;1.50;;;24.20;99.90;;;23.27;60.14;103111.44;5012635;28;20033;-74
2021/07/18 09:03:32;;;;;;;4.30;1.27;;;24.70;99.90;;;23.69;60.51;103082.75;5016858;28;20033;-74
2021/07/18 09:06:22;;;;;;;7.30;1.65;;;25.00;99.90;;;23.84;63.30;103079.09;4978755;28;20055;-75
2021/07/18 09:09:12;;;;;;;5.38;1.90;;;24.90;99.90;;;23.74;61.11;102944.31;4983061;28;20079;-75
2021/07/18 09:12:16;;;;;;;3.88;1.60;;;24.50;99.90;;;23.25;62.13;102906.41;4990500;28;20028;-74
2021/07/18 09:15:08;;;;;;;2.90;1.23;;;24.80;99.90;;;24.02;61.91;102960.47;4997263;28;20684;-75
2021/07/18 09:18:12;;;;;;;8.43;1.42;;;25.00;99.90;;;23.92;62.46;102911.78;4992035;28;20056;-75
2021/07/18 09:21:02;;;;;;;3.15;1.33;;;24.60;99.90;;;23.52;62.86;102868.75;4978265;28;20098;-75
2021/07/18 09:23:47;;;;;;;5.25;1.63;;;24.10;99.90;;;23.07;63.28;102847.56;4977928;28;20044;-74
2021/07/18 09:26:40;;;;;;;3.53;1.80;;;23.90;99.90;;;22.80;65.86;102766.09;4979323;28;20071;-74
2021/07/18 09:30:11;;;;;;;16.10;1.88;;;23.70;99.90;;;22.14;67.84;102688.03;4983059;28;20037;-75
2021/07/18 09:33:44;;;;;;;3.40;1.60;;;23.00;99.90;;;22.43;67.89;102747.03;4973053;28;20121;-74
2021/07/18 09:36:33;;;;;;;2.70;1.80;;;23.60;99.90;;;22.90;63.70;102776.13;4999301;28;20037;-74
2021/07/18 09:39:32;;;;;;;5.90;1.83;;;23.80;99.90;;;22.57;64.55;102712.09;4982716;28;20097;-74
2021/07/18 09:42:48;;;;;;;8.75;2.22;;;23.40;99.90;;;22.38;67.63;102712.44;4977291;28;20046;-74
2021/07/18 09:45:41;;;;;;;3.20;1.75;;;23.30;99.90;;;22.72;66.49;102735.25;4985269;28;20122;-74
2021/07/18 09:48:49;;;;;;;5.88;2.22;;;23.90;99.90;;;23.56;63.91;102800.34;4964022;28;20128;-75
2021/07/18 09:51:53;;;;;;;8.85;2.40;;;23.90;99.90;;;22.39;64.22;102651.56;4975812;28;20056;-74
2021/07/18 09:54:20;;;;;;;7.65;2.03;;;23.00;99.90;;;21.73;66.66;102613.78;4995129;28;20033;-74
2021/07/18 09:57:07;;;;;;;8.07;2.20;;;23.30;99.90;;;23.00;63.60;102738.78;4978102;28;20046;-74
2021/07/18 10:00:10;;;;;;;3.03;1.55;;;23.50;99.90;;;21.91;64.90;102599.19;4974957;28;20046;-74
2021/07/18 10:02:45;;;;;;;3.97;1.92;;;23.10;99.90;;;22.48;65.78;102683.16;4978126;28;20041;-74
2021/07/18 10:05:36;;;;;;;5.30;1.98;;;23.60;99.90;;;22.78;62.67;102704.41;4966678;28;20175;-74
2021/07/18 10:08:28;;;;;;;4.97;1.83;;;23.70;99.90;;;23.04;64.22;102716.09;4981868;28;20037;-74
2021/07/18 10:11:31;;;;;;;7.15;1.65;;;23.80;99.90;;;22.71;63.05;102652.09;4991756;28;20041;-74
2021/07/18 10:14:44;;;;;;;5.68;1.55;;;23.60;99.90;;;23.17;64.89;102721.50;4989988;28;20051;-74
2021/07/18 10:17:59;;;;;;;3.95;1.55;;;24.10;99.90;;;23.13;60.15;102683.25;4992088;28;20496;-74
2021/07/18 10:21:44;;;;;;;4.60;1.58;;;23.70;99.90;;;23.07;63.63;102685.50;4985166;28;20427;-75
2021/07/18 10:24:47;;;;;;;2.70;1.73;;;23.90;99.90;;;23.16;61.50;102673.25;4987356;28;20055;-74